createdAt,value
2023-05-14T00:03:57.450Z,10.81
2023-05-14T00:09:04.771Z,8.63
2023-05-14T00:14:12.039Z,12.12
2023-05-14T00:19:19.611Z,10.79
2023-05-14T00:24:26.920Z,9.49
2023-05-14T00:29:34.387Z,11.34
2023-05-14T00:34:41.587Z,12.58
2023-05-14T00:39:48.968Z,9.06
2023-05-14T00:44:56.149Z,10.67
2023-05-14T00:50:03.510Z,11.03
2023-05-14T00:55:10.690Z,11.41
2023-05-14T01:00:18.081Z,10.29
2023-05-14T01:05:25.304Z,9.13
2023-05-14T01:10:32.729Z,9.01
2023-05-14T01:15:40.043Z,9.58
2023-05-14T01:20:47.445Z,8.94
2023-05-14T01:25:54.697Z,11.08
2023-05-14T01:31:02.140Z,10.59
2023-05-14T01:36:09.431Z,10.39
2023-05-14T01:41:16.829Z,12.35
2023-05-14T01:46:24.161Z,8.76
2023-05-14T01:51:31.615Z,12.10
2023-05-14T01:56:38.786Z,11.32
2023-05-14T02:01:46.206Z,12.93
2023-05-14T02:06:53.417Z,10.74
2023-05-14T02:12:00.780Z,11.12
2023-05-14T02:17:07.955Z,8.73
2023-05-14T02:22:15.265Z,9.83
2023-05-14T02:27:22.555Z,11.19
2023-05-14T02:32:29.903Z,11.14
2023-05-14T02:37:37.024Z,11.05
2023-05-14T02:42:44.351Z,9.89
2023-05-14T02:47:51.607Z,11.07
2023-05-14T02:52:58.996Z,10.83
2023-05-14T02:58:06.278Z,11.39
2023-05-14T03:03:13.695Z,11.90
2023-05-14T03:08:20.894Z,10.36
2023-05-14T03:13:28.182Z,11.50
2023-05-14T03:18:35.435Z,14.01
2023-05-14T03:23:42.765Z,10.76
2023-05-14T03:28:49.949Z,13.73
2023-05-14T03:33:57.258Z,11.74
2023-05-14T03:39:04.535Z,10.54
2023-05-14T03:44:11.889Z,11.66
2023-05-14T03:49:19.109Z,11.34
2023-05-14T03:54:26.399Z,10.46
2023-05-14T03:59:33.654Z,9.87
2023-05-14T04:04:41.191Z,8.58
2023-05-14T04:09:48.314Z,9.32
2023-05-14T04:14:55.728Z,11.09
2023-05-14T04:20:03.030Z,9.68
2023-05-14T04:25:10.418Z,9.85
2023-05-14T04:30:17.656Z,8.63
2023-05-14T04:35:25.282Z,10.09
2023-05-14T04:40:32.391Z,13.44
2023-05-14T04:45:39.819Z,13.09
2023-05-14T04:50:47.143Z,11.02
2023-05-14T04:55:54.647Z,9.97
2023-05-14T05:01:01.975Z,11.81
2023-05-14T05:06:09.195Z,10.12
2023-05-14T05:11:16.377Z,11.45
2023-05-14T05:16:23.836Z,11.02
2023-05-14T05:21:31.132Z,10.57
2023-05-14T05:26:38.708Z,11.36
2023-05-14T05:31:46.049Z,8.85
2023-05-14T05:36:53.453Z,8.93
2023-05-14T05:42:00.849Z,15.33
2023-05-14T05:47:08.273Z,13.78
2023-05-14T05:52:15.567Z,10.93
2023-05-14T05:57:24.483Z,10.85
2023-05-14T06:02:29.836Z,9.25
2023-05-14T06:07:37.235Z,9.82
2023-05-14T06:12:44.465Z,7.50
2023-05-14T06:17:51.896Z,8.08
2023-05-14T06:22:59.301Z,8.47
2023-05-14T06:28:06.712Z,10.57
2023-05-14T06:33:14.159Z,10.63
2023-05-14T06:38:21.617Z,8.72
2023-05-14T06:43:28.811Z,8.93
2023-05-14T06:48:36.396Z,11.74
2023-05-14T06:53:43.723Z,9.81
2023-05-14T06:58:51.583Z,11.09
2023-05-14T07:03:58.791Z,8.12
2023-05-14T07:09:06.185Z,9.54
2023-05-14T07:14:13.436Z,9.11
2023-05-14T07:19:20.752Z,12.63
2023-05-14T07:24:29.269Z,7.83
2023-05-14T07:29:36.672Z,9.25
2023-05-14T07:34:43.915Z,9.72
2023-05-14T07:39:51.355Z,9.11
2023-05-14T07:44:58.777Z,9.15
2023-05-14T07:50:06.507Z,7.76
2023-05-14T07:55:13.753Z,7.50
2023-05-14T08:00:21.113Z,7.72
2023-05-14T08:05:28.504Z,8.32
2023-05-14T08:10:36.136Z,6.21
2023-05-14T08:15:43.228Z,7.62
2023-05-14T08:20:50.707Z,7.70
2023-05-14T08:25:57.963Z,6.67
2023-05-14T08:31:05.711Z,8.07
2023-05-14T08:36:12.897Z,5.34
2023-05-14T08:41:21.635Z,6.82
2023-05-14T08:46:28.837Z,9.02
2023-05-14T08:51:36.355Z,7.03
2023-05-14T08:56:43.634Z,5.55
2023-05-14T09:01:54.134Z,5.71
2023-05-14T09:06:51.307Z,5.88
2023-05-14T09:11:58.765Z,6.28
2023-05-14T09:17:06.205Z,8.99
2023-05-14T09:22:13.635Z,8.70
2023-05-14T09:27:20.946Z,6.84
2023-05-14T09:32:28.329Z,4.95
2023-05-14T09:37:35.524Z,5.21
2023-05-14T09:42:42.819Z,5.23
2023-05-14T09:47:50.187Z,6.61
2023-05-14T09:52:57.382Z,4.79
2023-05-14T09:58:04.639Z,7.92
2023-05-14T10:03:12.134Z,7.34
2023-05-14T10:08:19.225Z,5.58
2023-05-14T10:13:26.524Z,5.86
2023-05-14T10:18:33.796Z,9.10
2023-05-14T10:23:41.115Z,6.92
2023-05-14T10:28:48.261Z,5.51
2023-05-14T10:39:00.023Z,6.19
2023-05-14T10:44:07.409Z,7.11
2023-05-14T10:49:14.709Z,8.38
2023-05-14T10:54:22.122Z,4.51
2023-05-14T10:59:29.368Z,5.26
2023-05-14T11:04:36.765Z,4.85
2023-05-14T11:09:44.005Z,4.78
2023-05-14T11:14:51.340Z,6.22
2023-05-14T11:19:58.567Z,5.54
2023-05-14T11:25:05.973Z,4.43
2023-05-14T11:30:13.174Z,3.09
2023-05-14T11:35:20.568Z,5.45
2023-05-14T11:40:27.861Z,6.75
2023-05-14T11:45:35.287Z,5.67
2023-05-14T11:50:42.467Z,6.37
2023-05-14T11:55:49.906Z,5.54
2023-05-14T12:00:57.121Z,5.27
2023-05-14T12:06:04.507Z,4.99
2023-05-14T12:11:11.701Z,5.74
2023-05-14T12:16:19.035Z,5.08
2023-05-14T12:21:26.189Z,4.46
2023-05-14T12:26:33.665Z,6.27
2023-05-14T12:31:40.916Z,5.29
2023-05-14T12:36:48.192Z,8.31
2023-05-14T12:41:55.378Z,5.39
2023-05-14T12:47:02.769Z,3.94
2023-05-14T12:57:16.905Z,5.24
2023-05-14T13:02:24.134Z,4.23
2023-05-14T13:07:31.535Z,4.58
2023-05-14T13:12:38.780Z,7.14
2023-05-14T13:17:46.192Z,5.25
2023-05-14T13:22:54.733Z,9.18
2023-05-14T13:28:02.178Z,4.99
2023-05-14T13:33:09.505Z,7.22
2023-05-14T13:38:17.061Z,7.46
2023-05-14T13:43:24.345Z,3.81
2023-05-14T13:48:31.733Z,4.78
2023-05-14T13:53:38.898Z,6.50
2023-05-14T13:58:46.198Z,7.97
2023-05-14T14:03:53.474Z,7.58
2023-05-14T14:09:00.854Z,6.74
2023-05-14T14:14:08.042Z,5.45
2023-05-14T14:19:16.458Z,6.32
2023-05-14T14:24:22.165Z,6.13
2023-05-14T14:29:29.545Z,9.41
2023-05-14T14:34:36.836Z,6.23
2023-05-14T14:39:44.241Z,4.69
2023-05-14T14:44:51.458Z,7.49
2023-05-14T14:49:58.963Z,3.96
2023-05-14T14:55:06.282Z,3.92
2023-05-14T15:00:13.721Z,4.24
2023-05-14T15:05:20.989Z,7.16
2023-05-14T15:10:28.465Z,6.80
2023-05-14T15:15:35.721Z,7.96
2023-05-14T15:20:43.029Z,7.00
2023-05-14T15:25:50.350Z,4.30
2023-05-14T15:30:57.707Z,5.08
2023-05-14T15:36:04.913Z,4.82
2023-05-14T15:41:12.306Z,4.17
2023-05-14T15:46:19.630Z,5.92
2023-05-14T15:51:26.973Z,6.06
2023-05-14T15:56:34.190Z,5.52
2023-05-14T16:01:41.636Z,7.77
2023-05-14T16:06:48.808Z,5.98
2023-05-14T16:11:56.229Z,5.05
2023-05-14T16:17:03.609Z,5.54
2023-05-14T16:22:11.048Z,8.20
2023-05-14T16:27:18.266Z,6.90
2023-05-14T16:32:25.693Z,5.39
2023-05-14T16:37:32.848Z,6.03
2023-05-14T16:42:40.245Z,4.72
2023-05-14T16:47:47.688Z,7.49
2023-05-14T16:52:54.932Z,8.47
2023-05-14T16:58:02.128Z,7.06
2023-05-14T17:03:09.566Z,7.46
2023-05-14T17:08:16.755Z,6.78
2023-05-14T17:13:24.104Z,4.46
2023-05-14T17:18:31.377Z,6.01
2023-05-14T17:23:38.703Z,5.92
2023-05-14T17:33:50.425Z,5.84
2023-05-14T17:38:57.718Z,7.20
2023-05-14T17:44:05.042Z,7.25
2023-05-14T17:49:12.292Z,8.16
2023-05-14T17:54:19.737Z,5.14
2023-05-14T17:59:26.930Z,7.12
2023-05-14T18:04:34.379Z,8.54
2023-05-14T18:09:41.680Z,7.94
2023-05-14T18:14:49.090Z,7.36
2023-05-14T18:19:56.356Z,4.54
2023-05-14T18:25:03.652Z,7.00
2023-05-14T18:30:11.043Z,5.78
2023-05-14T18:35:18.676Z,5.13
2023-05-14T18:40:26.115Z,4.38
2023-05-14T18:45:33.755Z,7.18
2023-05-14T18:50:41.219Z,3.59
2023-05-14T18:55:48.733Z,5.72
2023-05-14T19:06:00.947Z,6.14
2023-05-14T19:11:08.225Z,7.46
2023-05-14T19:16:15.655Z,5.26
2023-05-14T19:21:22.950Z,3.35
2023-05-14T19:26:30.362Z,4.32
2023-05-14T19:31:37.847Z,5.01
2023-05-14T19:36:45.125Z,8.00
2023-05-14T19:41:52.370Z,5.06
2023-05-14T19:47:00.019Z,3.57
2023-05-14T19:52:07.172Z,5.62
2023-05-14T19:57:14.561Z,6.74
2023-05-14T20:02:21.914Z,4.68
2023-05-14T20:07:29.727Z,6.95
2023-05-14T20:12:37.163Z,6.48
2023-05-14T20:17:45.127Z,7.52
2023-05-14T20:22:52.727Z,5.68
2023-05-14T20:28:00.253Z,5.20
2023-05-14T20:33:07.522Z,5.39
2023-05-14T20:38:14.849Z,3.86
2023-05-14T20:43:22.060Z,4.63
2023-05-14T20:48:29.456Z,5.31
2023-05-14T20:53:36.674Z,4.18
2023-05-14T20:58:44.065Z,4.16
2023-05-14T21:03:51.482Z,4.56
2023-05-14T21:08:58.671Z,5.85
2023-05-14T21:14:06.118Z,4.59
2023-05-14T21:19:15.352Z,3.88
2023-05-14T21:24:20.576Z,3.31
2023-05-14T21:29:27.901Z,7.71
2023-05-14T21:34:35.614Z,4.28
2023-05-14T21:39:43.062Z,7.34
2023-05-14T21:44:50.278Z,3.81
2023-05-14T21:49:57.629Z,4.72
2023-05-14T21:55:05.016Z,4.33
2023-05-14T22:00:12.581Z,4.15
2023-05-14T22:05:19.736Z,5.49
2023-05-14T22:10:27.048Z,3.37
2023-05-14T22:15:34.414Z,3.30
2023-05-14T22:20:41.649Z,3.96
2023-05-14T22:25:48.931Z,3.87
2023-05-14T22:30:56.195Z,3.96
2023-05-14T22:36:03.366Z,4.81
2023-05-14T22:41:10.614Z,4.32
2023-05-14T22:46:17.909Z,6.15
2023-05-14T22:51:25.274Z,4.45
2023-05-14T22:56:32.463Z,5.73
2023-05-14T23:01:39.766Z,5.81
2023-05-14T23:06:46.948Z,5.59
2023-05-14T23:11:54.366Z,5.64
2023-05-14T23:17:01.590Z,4.55
2023-05-14T23:22:08.933Z,4.91
2023-05-14T23:27:16.124Z,5.04
2023-05-14T23:32:23.485Z,7.17
2023-05-14T23:37:30.623Z,5.27
2023-05-14T23:42:38.086Z,4.95
2023-05-14T23:47:45.304Z,5.24
2023-05-14T23:52:52.589Z,6.76
2023-05-14T23:57:59.795Z,4.80
